TimeMDT,TemperatureF,Dew PointF,Humidity,Sea Level PressureIn,VisibilityMPH,Wind Direction,Wind SpeedMPH,Gust SpeedMPH,PrecipitationIn,Events,Conditions,WindDirDegrees,DateUTC
12:56 AM,41.0,39.0,93,30.14,-9999.0,NE,23.0,26.5,0.06,,Unknown,50,2013-10-04 06:56:00
1:56 AM,39.9,37.0,89,30.14,-9999.0,NE,21.9,28.8,0.11,,Unknown,40,2013-10-04 07:56:00
2:56 AM,39.0,36.0,89,30.14,-9999.0,NE,21.9,-,0.10,,Unknown,40,2013-10-04 08:56:00
3:56 AM,39.0,37.0,93,30.12,-9999.0,NE,17.3,-,0.01,,Unknown,40,2013-10-04 09:56:00
4:56 AM,37.9,36.0,93,30.13,-9999.0,NE,23.0,32.2,N/A,,Unknown,40,2013-10-04 10:56:00
5:56 AM,37.0,35.1,93,30.16,-9999.0,NNE,27.6,33.4,0.04,,Unknown,30,2013-10-04 11:56:00
6:56 AM,36.0,34.0,93,30.16,-9999.0,NNE,28.8,36.8,0.07,,Unknown,30,2013-10-04 12:56:00
7:56 AM,34.0,32.0,92,30.17,-9999.0,NNE,23.0,32.2,0.08,,Unknown,20,2013-10-04 13:56:00
8:56 AM,33.1,32.0,96,30.24,-9999.0,North,13.8,-,0.07,,Unknown,360,2013-10-04 14:56:00
9:56 AM,33.1,32.0,96,30.21,-9999.0,North,20.7,-,0.07,,Unknown,10,2013-10-04 15:56:00
10:56 AM,33.1,32.0,96,30.20,-9999.0,North,25.3,33.4,0.02,,Unknown,10,2013-10-04 16:56:00
11:56 AM,33.1,32.0,96,30.22,-9999.0,North,21.9,-,0.02,,Unknown,10,2013-10-04 17:56:00
12:57 PM,33.1,30.9,92,30.19,-9999.0,North,27.6,36.8,N/A,,Unknown,10,2013-10-04 18:57:00
5:56 PM,33.1,32.0,96,30.13,-9999.0,NNW,32.2,40.3,N/A,,Unknown,340,2013-10-04 23:56:00
6:56 PM,33.1,32.0,96,30.15,-9999.0,NNW,28.8,-,N/A,,Unknown,340,2013-10-05 00:56:00
7:56 PM,33.1,32.0,96,30.16,-9999.0,NNW,32.2,38.0,N/A,,Unknown,340,2013-10-05 01:56:00
8:56 PM,32.0,30.9,96,30.13,-9999.0,NNW,39.1,46.0,N/A,,Unknown,340,2013-10-05 02:56:00
9:56 PM,30.9,30.0,96,30.15,-9999.0,NNW,35.7,41.4,N/A,,Unknown,340,2013-10-05 03:56:00
10:56 PM,30.9,30.0,96,30.15,-9999.0,NNW,29.9,39.1,N/A,,Unknown,340,2013-10-05 04:56:00
11:56 PM,32.0,28.9,88,30.13,-9999.0,NNW,33.4,40.3,N/A,,Unknown,340,2013-10-05 05:56:00